Terminal Aerodrome Forecast
Issued by NWS Wilmington, OH

Home | Current Version | Previous Version | Text Only | Print | Product List | Glossary On
Versions: 1 2 3 4 5 6 7 8 9 10 11 12 13 14 15 16 17
000
FTUS41 KILN 301100
TAFILN
TAF
KILN 301134Z 3012/0112 22005KT P6SM SCT050
     FM301500 31010KT P6SM VCSH BKN035
     FM302100 33009KT P6SM SCT040
     FM010400 03004KT 5SM BR SCT250=

USA.gov is the U.S. government's official web portal to all federal, state and local government web resources and services.